Time;durP1;ratioP1;P1;durP2;ratioP2;P2;SDS_P1;SDS_P2;PMS_P1;PMS_P2;Temp;Humidity;BMP_temperature;BMP_pressure;BME280_temperature;BME280_humidity;BME280_pressure;Samples;Min_cycle;Max_cycle;Signal;HPM_P1;HPM_P2
2023/01/25 00:00:06;;;;;;;12.38;7.30;;;3.80;99.90;;;;;;5073086;28;20430;-55
2023/01/25 00:02:34;;;;;;;13.52;8.10;;;3.80;99.90;;;;;;5074554;28;20506;-58
2023/01/25 00:05:01;;;;;;;11.07;7.60;;;3.70;99.90;;;;;;5076765;28;20426;-57
2023/01/25 00:07:29;;;;;;;11.20;6.50;;;3.70;99.90;;;;;;5076859;28;20419;-55
2023/01/25 00:09:56;;;;;;;12.93;8.40;;;3.60;99.90;;;;;;5076474;28;20527;-58
2023/01/25 00:12:24;;;;;;;11.82;7.38;;;3.70;99.90;;;;;;5076263;28;20425;-58
2023/01/25 00:14:51;;;;;;;11.95;6.93;;;3.70;99.90;;;;;;5076780;28;20499;-56
2023/01/25 00:17:18;;;;;;;12.90;7.60;;;3.70;99.90;;;;;;5077090;28;20415;-57
2023/01/25 00:19:45;;;;;;;12.77;6.97;;;3.60;99.90;;;;;;5076585;28;20743;-56
2023/01/25 00:22:12;;;;;;;11.35;7.35;;;3.70;99.90;;;;;;5074999;28;20427;-56
2023/01/25 00:24:40;;;;;;;10.88;6.45;;;3.90;99.90;;;;;;5074272;28;20426;-57
2023/01/25 00:27:07;;;;;;;11.10;6.55;;;3.80;99.90;;;;;;5074850;28;20863;-57
2023/01/25 00:29:35;;;;;;;12.85;8.05;;;3.70;99.90;;;;;;5075581;28;20689;-57
2023/01/25 00:32:32;;;;;;;14.02;7.82;;;3.70;99.90;;;;;;5076261;28;20428;-57
2023/01/25 00:34:59;;;;;;;9.52;7.38;;;3.60;99.90;;;;;;5074205;28;20416;-56
2023/01/25 00:37:30;;;;;;;10.65;6.90;;;3.70;99.90;;;;;;5074250;28;20419;-57
2023/01/25 00:39:59;;;;;;;10.40;6.10;;;3.80;99.90;;;;;;5074556;28;20558;-57
2023/01/25 00:42:26;;;;;;;12.20;6.97;;;3.70;99.90;;;;;;5072626;28;20570;-54
2023/01/25 00:44:54;;;;;;;10.40;6.93;;;3.80;99.90;;;;;;5072491;28;20441;-56
2023/01/25 00:47:21;;;;;;;11.25;7.53;;;3.70;99.90;;;;;;5073125;28;20455;-57
2023/01/25 00:49:49;;;;;;;10.60;6.75;;;3.70;99.90;;;;;;5074179;28;20441;-57
2023/01/25 00:52:17;;;;;;;11.75;7.15;;;3.60;99.90;;;;;;5075597;28;20469;-56
2023/01/25 00:54:44;;;;;;;10.10;6.40;;;3.70;99.90;;;;;;5075296;28;20515;-57
2023/01/25 00:57:12;;;;;;;11.70;6.95;;;3.90;99.90;;;;;;5076321;28;20467;-54
2023/01/25 00:59:43;;;;;;;11.32;7.40;;;3.90;99.90;;;;;;5075271;28;20821;-56
2023/01/25 01:02:10;;;;;;;12.48;6.88;;;3.80;99.90;;;;;;5076594;28;20883;-57
2023/01/25 01:04:38;;;;;;;12.02;7.50;;;3.70;99.90;;;;;;5076781;28;20407;-58
2023/01/25 01:07:05;;;;;;;11.95;7.75;;;3.60;99.90;;;;;;5075731;28;20431;-57
2023/01/25 01:09:33;;;;;;;11.27;7.28;;;3.60;99.90;;;;;;5075602;28;20830;-57
2023/01/25 01:12:00;;;;;;;11.13;6.88;;;3.70;99.90;;;;;;5075882;28;20756;-57
2023/01/25 01:14:29;;;;;;;8.48;6.10;;;3.70;99.90;;;;;;5074813;28;20420;-57
2023/01/25 01:16:56;;;;;;;9.05;5.75;;;3.80;99.90;;;;;;5076065;28;20526;-55
2023/01/25 01:19:24;;;;;;;10.65;6.03;;;3.90;99.90;;;;;;5076248;28;20443;-58
2023/01/25 01:21:51;;;;;;;10.85;6.57;;;3.90;99.90;;;;;;5076011;28;20797;-56
2023/01/25 01:24:18;;;;;;;12.82;7.05;;;4.00;99.90;;;;;;5075674;28;20424;-57
2023/01/25 01:26:46;;;;;;;11.77;7.53;;;3.90;99.90;;;;;;5076387;28;20523;-56
2023/01/25 01:29:13;;;;;;;11.98;6.78;;;3.80;99.90;;;;;;5074986;28;20442;-57
2023/01/25 01:31:42;;;;;;;10.82;6.20;;;3.70;99.90;;;;;;5075190;28;20823;-55
2023/01/25 01:34:14;;;;;;;11.02;7.00;;;3.60;99.90;;;;;;5075841;28;20495;-57
2023/01/25 01:36:41;;;;;;;11.75;6.80;;;3.60;99.90;;;;;;5076172;28;20778;-57
2023/01/25 01:39:08;;;;;;;13.13;6.30;;;3.60;99.90;;;;;;5074926;28;20492;-57
2023/01/25 01:41:36;;;;;;;11.15;6.70;;;3.60;99.90;;;;;;5075387;28;20474;-57
2023/01/25 01:44:04;;;;;;;11.48;6.90;;;3.50;99.90;;;;;;5074936;28;20790;-58
2023/01/25 01:46:36;;;;;;;9.40;6.63;;;3.60;99.90;;;;;;5075638;28;20434;-58
2023/01/25 01:49:10;;;;;;;9.63;5.70;;;3.70;99.90;;;;;;5075610;28;20459;-55
2023/01/25 01:51:44;;;;;;;10.00;6.38;;;3.70;99.90;;;;;;5075553;28;20510;-57
2023/01/25 01:54:16;;;;;;;9.68;5.80;;;3.80;99.90;;;;;;5075606;28;20447;-56
2023/01/25 01:56:51;;;;;;;8.73;6.10;;;4.00;99.90;;;;;;5075880;28;20523;-56
2023/01/25 01:59:19;;;;;;;9.50;5.37;;;3.90;99.90;;;;;;5075021;28;20419;-56
2023/01/25 02:01:47;;;;;;;7.72;5.18;;;4.00;99.90;;;;;;5075433;28;20495;-56
2023/01/25 02:04:18;;;;;;;9.98;6.50;;;3.90;99.90;;;;;;5074712;28;20830;-55
2023/01/25 02:06:51;;;;;;;10.70;6.47;;;3.70;99.90;;;;;;5075182;28;20526;-54
2023/01/25 02:09:22;;;;;;;10.87;6.20;;;3.60;99.90;;;;;;5075192;28;20808;-57
2023/01/25 02:11:51;;;;;;;10.27;6.20;;;3.50;99.90;;;;;;5075272;28;20921;-58
2023/01/25 02:14:19;;;;;;;10.43;5.78;;;3.50;99.90;;;;;;5074481;28;20510;-57
2023/01/25 02:16:47;;;;;;;10.52;6.80;;;3.40;99.90;;;;;;5074973;28;20513;-57
2023/01/25 02:19:22;;;;;;;9.55;6.00;;;3.60;99.90;;;;;;5074816;28;20459;-57
2023/01/25 02:21:52;;;;;;;7.90;5.60;;;3.80;99.90;;;;;;5074711;28;20427;-57
2023/01/25 02:24:26;;;;;;;7.63;4.57;;;3.90;99.90;;;;;;5075220;28;20487;-58
2023/01/25 02:26:54;;;;;;;10.93;6.03;;;3.90;99.90;;;;;;5074660;28;20526;-56
2023/01/25 02:29:23;;;;;;;8.00;5.35;;;4.00;99.90;;;;;;5074856;28;20518;-56
2023/01/25 02:31:51;;;;;;;10.60;5.90;;;4.10;99.90;;;;;;5074432;28;20522;-57
2023/01/25 02:34:18;;;;;;;11.40;6.18;;;4.10;99.90;;;;;;5074777;28;20442;-58
2023/01/25 02:36:45;;;;;;;8.27;5.57;;;4.00;99.90;;;;;;5074650;28;20496;-55
2023/01/25 02:39:17;;;;;;;8.23;5.55;;;4.00;99.90;;;;;;5074314;28;20510;-55
2023/01/25 02:41:46;;;;;;;9.32;5.60;;;4.10;99.90;;;;;;5074474;28;20423;-56
2023/01/25 02:44:18;;;;;;;8.55;5.18;;;4.00;99.90;;;;;;5073933;28;20423;-57
2023/01/25 02:46:46;;;;;;;8.83;5.60;;;3.90;99.90;;;;;;5073896;28;20427;-53
2023/01/25 02:49:14;;;;;;;11.27;6.70;;;3.80;99.90;;;;;;5074111;28;20429;-57
2023/01/25 02:51:43;;;;;;;10.43;5.88;;;3.60;99.90;;;;;;5074173;28;20814;-57
2023/01/25 02:54:12;;;;;;;10.05;5.72;;;3.60;99.90;;;;;;5074385;28;20751;-58
2023/01/25 02:56:40;;;;;;;11.18;5.25;;;3.60;99.90;;;;;;5074255;28;20427;-57
2023/01/25 02:59:08;;;;;;;10.35;5.47;;;3.80;99.90;;;;;;5074242;28;20735;-58
2023/01/25 03:01:38;;;;;;;8.10;5.50;;;3.90;99.90;;;;;;5074579;28;20563;-55
2023/01/25 03:04:06;;;;;;;10.90;5.97;;;3.90;99.90;;;;;;5073985;28;20907;-57
2023/01/25 03:06:34;;;;;;;10.13;5.90;;;3.90;99.90;;;;;;5074587;28;20521;-57
2023/01/25 03:09:02;;;;;;;10.35;5.63;;;3.90;99.90;;;;;;5073971;28;20482;-57
2023/01/25 03:11:30;;;;;;;9.48;6.07;;;4.00;99.90;;;;;;5074053;28;20522;-55
2023/01/25 03:13:57;;;;;;;9.98;5.65;;;4.00;99.90;;;;;;5073411;28;20423;-57
2023/01/25 03:16:24;;;;;;;9.20;5.20;;;3.90;99.90;;;;;;5073246;28;20467;-57
2023/01/25 03:18:54;;;;;;;9.23;4.80;;;3.80;99.90;;;;;;5073929;28;20474;-58
2023/01/25 03:21:23;;;;;;;8.60;4.70;;;3.70;99.90;;;;;;5074133;28;20514;-56
2023/01/25 03:23:56;;;;;;;9.90;5.60;;;3.70;99.90;;;;;;5074196;28;20455;-57
2023/01/25 03:26:24;;;;;;;7.90;4.70;;;3.60;99.90;;;;;;5073655;28;20431;-57
2023/01/25 03:28:51;;;;;;;9.80;5.68;;;3.60;99.90;;;;;;5073137;28;20518;-57
2023/01/25 03:31:19;;;;;;;8.38;5.10;;;3.60;99.90;;;;;;5073745;28;20527;-57
2023/01/25 03:33:47;;;;;;;10.73;5.88;;;3.40;99.90;;;;;;5074302;28;20462;-57
2023/01/25 03:36:16;;;;;;;8.63;5.37;;;3.40;99.90;;;;;;5073804;28;20463;-57
2023/01/25 03:38:43;;;;;;;7.72;4.20;;;3.40;99.90;;;;;;5076766;28;20506;-57
2023/01/25 03:41:12;;;;;;;8.32;5.07;;;3.30;99.90;;;;;;5077253;28;20518;-56
2023/01/25 03:43:39;;;;;;;9.00;4.53;;;3.30;99.90;;;;;;5077338;28;20778;-57
2023/01/25 03:46:07;;;;;;;7.82;4.80;;;3.40;99.90;;;;;;5076177;28;20522;-58
2023/01/25 03:48:34;;;;;;;9.50;5.47;;;3.40;99.90;;;;;;5076881;28;20811;-56
2023/01/25 03:51:01;;;;;;;8.83;5.20;;;3.30;99.90;;;;;;5076965;28;20537;-58
2023/01/25 03:53:31;;;;;;;7.55;4.68;;;3.30;99.90;;;;;;5076765;28;20484;-58
2023/01/25 03:56:00;;;;;;;9.10;4.68;;;3.40;99.90;;;;;;5077582;28;20427;-56
2023/01/25 03:58:28;;;;;;;7.32;4.68;;;3.40;99.90;;;;;;5077240;28;20540;-57
2023/01/25 04:00:57;;;;;;;9.68;4.35;;;3.50;99.90;;;;;;5077650;28;20506;-57
2023/01/25 04:03:24;;;;;;;8.45;4.65;;;3.60;99.90;;;;;;5076595;28;20447;-57
2023/01/25 04:05:52;;;;;;;7.77;4.60;;;3.50;99.90;;;;;;5077057;28;20518;-57
2023/01/25 04:08:19;;;;;;;6.75;4.05;;;3.60;99.90;;;;;;5077297;28;20507;-56
2023/01/25 04:10:52;;;;;;;7.05;4.60;;;3.50;99.90;;;;;;5076738;28;20427;-57
2023/01/25 04:13:20;;;;;;;8.98;4.25;;;3.70;99.90;;;;;;5075628;28;20848;-57
2023/01/25 04:15:47;;;;;;;9.75;4.63;;;3.70;99.90;;;;;;5075574;28;20522;-57
2023/01/25 04:18:15;;;;;;;6.63;4.00;;;3.80;99.90;;;;;;5075825;28;20506;-58
2023/01/25 04:20:42;;;;;;;6.80;3.70;;;3.90;99.90;;;;;;5075449;28;20517;-58
2023/01/25 04:23:10;;;;;;;7.45;3.50;;;3.90;99.90;;;;;;5076320;28;20510;-56
2023/01/25 04:25:38;;;;;;;5.57;4.18;;;3.90;99.90;;;;;;5077427;28;20427;-55
2023/01/25 04:28:06;;;;;;;7.78;3.72;;;3.80;99.90;;;;;;5076154;28;20503;-56
2023/01/25 04:30:34;;;;;;;7.18;3.67;;;3.70;99.90;;;;;;5076558;28;20431;-56
2023/01/25 04:33:04;;;;;;;8.73;4.30;;;3.70;99.90;;;;;;5076215;28;20522;-57
2023/01/25 04:35:31;;;;;;;8.48;4.60;;;3.80;99.90;;;;;;5076483;28;20439;-56
2023/01/25 04:38:00;;;;;;;8.50;4.68;;;3.80;99.90;;;;;;5076412;28;20455;-57
2023/01/25 04:40:27;;;;;;;5.85;3.42;;;3.80;99.90;;;;;;5075061;28;20434;-57
2023/01/25 04:42:54;;;;;;;7.70;3.50;;;3.90;99.90;;;;;;5075394;28;20823;-58
2023/01/25 04:45:23;;;;;;;8.30;3.05;;;3.90;99.90;;;;;;5074531;28;20855;-57
2023/01/25 04:47:55;;;;;;;7.13;3.67;;;3.80;99.90;;;;;;5076223;28;20835;-57
2023/01/25 04:50:22;;;;;;;7.45;3.92;;;3.80;99.90;;;;;;5076536;28;20781;-57
2023/01/25 04:52:50;;;;;;;6.25;3.88;;;3.80;99.90;;;;;;5076487;28;20438;-57
2023/01/25 04:55:17;;;;;;;7.20;4.13;;;3.70;99.90;;;;;;5074960;28;20522;-57
2023/01/25 04:57:44;;;;;;;5.68;2.92;;;3.60;99.90;;;;;;5075456;28;20426;-57
2023/01/25 05:00:12;;;;;;;8.10;3.55;;;3.60;99.90;;;;;;5075989;28;20898;-55
2023/01/25 05:02:41;;;;;;;6.70;3.33;;;3.60;99.90;;;;;;5075165;28;20502;-62
2023/01/25 05:05:09;;;;;;;5.90;2.80;;;3.50;99.90;;;;;;5075768;28;20424;-57
2023/01/25 05:07:36;;;;;;;4.82;2.50;;;3.50;99.90;;;;;;5076146;28;20419;-55
2023/01/25 05:10:04;;;;;;;9.77;4.85;;;3.50;99.90;;;;;;5075703;28;20514;-57
2023/01/25 05:12:31;;;;;;;6.82;2.88;;;3.60;99.90;;;;;;5075906;28;20432;-55
2023/01/25 05:14:58;;;;;;;6.60;3.00;;;3.50;99.90;;;;;;5076076;28;20430;-56
2023/01/25 05:17:26;;;;;;;6.18;3.00;;;3.60;99.90;;;;;;5074213;28;20780;-57
2023/01/25 05:19:54;;;;;;;4.95;2.70;;;3.60;99.90;;;;;;5073185;28;20506;-58
2023/01/25 05:22:21;;;;;;;5.82;3.10;;;3.60;99.90;;;;;;5072171;28;20565;-56
2023/01/25 05:24:49;;;;;;;4.97;2.55;;;3.60;99.90;;;;;;5072040;28;20930;-54
2023/01/25 05:27:17;;;;;;;4.05;2.20;;;3.60;99.90;;;;;;5072734;28;20430;-57
2023/01/25 05:29:46;;;;;;;6.40;2.65;;;3.60;99.90;;;;;;5073990;28;20881;-57
2023/01/25 05:32:15;;;;;;;4.78;2.42;;;3.70;99.90;;;;;;5074675;28;20814;-57
2023/01/25 05:34:42;;;;;;;5.60;3.10;;;3.60;99.90;;;;;;5072319;28;21042;-57
2023/01/25 05:37:13;;;;;;;4.80;2.63;;;3.50;99.90;;;;;;5074229;28;20442;-57
2023/01/25 05:39:40;;;;;;;4.82;2.70;;;3.50;99.90;;;;;;5074188;28;20886;-56
2023/01/25 05:42:11;;;;;;;4.72;2.58;;;3.70;99.90;;;;;;5069824;28;20462;-56
2023/01/25 05:44:38;;;;;;;5.60;2.70;;;3.80;99.90;;;;;;5069837;28;20751;-57
2023/01/25 05:47:05;;;;;;;4.80;2.97;;;3.90;99.90;;;;;;5070215;28;20434;-56
2023/01/25 05:49:32;;;;;;;4.85;2.80;;;3.70;99.90;;;;;;5071636;28;20515;-56
2023/01/25 05:51:59;;;;;;;5.47;2.85;;;3.70;99.90;;;;;;5071839;28;20435;-56
2023/01/25 05:54:28;;;;;;;5.40;3.10;;;3.60;99.90;;;;;;5072381;28;20498;-57
2023/01/25 05:56:55;;;;;;;5.73;2.77;;;3.50;99.90;;;;;;5073224;28;20798;-58
2023/01/25 05:59:23;;;;;;;5.18;3.10;;;3.50;99.90;;;;;;5074908;28;20502;-62
2023/01/25 06:01:50;;;;;;;5.07;2.63;;;3.50;99.90;;;;;;5071983;28;20514;-58
2023/01/25 06:04:17;;;;;;;5.63;2.20;;;3.50;99.90;;;;;;5074515;28;20580;-58
2023/01/25 06:06:44;;;;;;;4.93;2.33;;;3.70;99.90;;;;;;5074799;28;20434;-58
2023/01/25 06:09:12;;;;;;;7.10;2.60;;;4.00;99.90;;;;;;5073961;28;20502;-57
2023/01/25 06:11:44;;;;;;;3.97;2.40;;;4.10;99.90;;;;;;5073324;28;20442;-58
2023/01/25 06:14:11;;;;;;;5.60;2.85;;;4.00;99.90;;;;;;5071163;28;20431;-56
2023/01/25 06:16:39;;;;;;;5.93;2.30;;;4.20;99.90;;;;;;5072426;28;20807;-58
2023/01/25 06:19:06;;;;;;;4.00;1.85;;;4.10;99.90;;;;;;5072462;28;20510;-58
2023/01/25 06:21:35;;;;;;;5.35;2.90;;;4.30;99.90;;;;;;5071119;28;20427;-58
2023/01/25 06:24:03;;;;;;;5.95;3.50;;;4.30;99.90;;;;;;5072739;28;20459;-58
2023/01/25 06:26:30;;;;;;;5.32;2.80;;;4.30;99.90;;;;;;5073388;28;20435;-58
2023/01/25 06:28:59;;;;;;;5.70;2.80;;;4.20;99.90;;;;;;5074025;28;20506;-58
2023/01/25 06:31:26;;;;;;;5.32;2.83;;;4.20;99.90;;;;;;5073414;28;20529;-58
2023/01/25 06:33:53;;;;;;;5.03;2.30;;;4.10;99.90;;;;;;5073497;28;20519;-58
2023/01/25 06:36:22;;;;;;;4.30;2.25;;;4.10;99.90;;;;;;5073143;28;20458;-58
2023/01/25 06:38:50;;;;;;;5.50;2.40;;;4.20;99.90;;;;;;5073331;28;20461;-58
2023/01/25 06:41:18;;;;;;;4.30;2.20;;;4.30;99.90;;;;;;5073767;28;20794;-58
2023/01/25 06:43:46;;;;;;;4.78;2.30;;;4.30;99.90;;;;;;5071981;28;20415;-58
2023/01/25 06:46:15;;;;;;;3.95;2.80;;;4.30;99.90;;;;;;5071132;28;20739;-58
2023/01/25 06:48:42;;;;;;;4.78;2.22;;;4.10;99.90;;;;;;5072187;28;20416;-59
2023/01/25 06:51:12;;;;;;;5.55;2.85;;;4.00;99.90;;;;;;5073089;28;20743;-57
2023/01/25 06:53:40;;;;;;;5.93;2.88;;;4.00;99.90;;;;;;5071689;28;20913;-58
2023/01/25 06:56:10;;;;;;;5.53;2.80;;;4.00;99.90;;;;;;5071952;28;20431;-58
2023/01/25 06:58:37;;;;;;;4.30;2.20;;;3.80;99.90;;;;;;5071726;28;20423;-58
2023/01/25 07:01:06;;;;;;;7.65;3.20;;;4.00;99.90;;;;;;5071674;28;20826;-58
2023/01/25 07:03:35;;;;;;;4.88;2.40;;;4.00;99.90;;;;;;5071338;28;20827;-58
2023/01/25 07:06:04;;;;;;;4.93;2.40;;;4.00;99.90;;;;;;5071584;28;20459;-58
2023/01/25 07:08:32;;;;;;;6.82;2.83;;;3.90;99.90;;;;;;5072299;28;20507;-58
2023/01/25 07:11:01;;;;;;;5.20;2.63;;;4.00;99.90;;;;;;5072085;28;20434;-58
2023/01/25 07:13:30;;;;;;;6.82;3.10;;;4.00;99.90;;;;;;5074432;28;20419;-59
2023/01/25 07:15:58;;;;;;;5.60;2.50;;;4.00;99.90;;;;;;5066712;28;20779;-59
2023/01/25 07:18:26;;;;;;;6.33;2.93;;;3.80;99.90;;;;;;5070534;28;20435;-58
2023/01/25 07:20:55;;;;;;;6.28;3.25;;;4.00;99.90;;;;;;5074748;28;20530;-58
2023/01/25 07:23:22;;;;;;;6.90;3.45;;;4.50;99.90;;;;;;5071839;28;20461;-58
2023/01/25 07:25:50;;;;;;;6.97;3.67;;;4.40;99.90;;;;;;5055165;28;20516;-59
2023/01/25 07:28:18;;;;;;;4.07;2.72;;;4.30;99.90;;;;;;5054880;28;20457;-58
2023/01/25 07:30:45;;;;;;;5.45;2.47;;;4.20;99.90;;;;;;5051232;28;20429;-57
2023/01/25 07:33:12;;;;;;;5.88;3.38;;;4.20;99.90;;;;;;5058846;28;20526;-59
2023/01/25 07:35:40;;;;;;;4.53;2.65;;;4.20;99.90;;;;;;5070384;28;20470;-58
2023/01/25 07:38:08;;;;;;;5.93;2.60;;;4.40;99.90;;;;;;5072790;28;20843;-58
2023/01/25 07:40:36;;;;;;;5.38;3.10;;;4.40;99.90;;;;;;5064655;28;20441;-58
2023/01/25 07:43:03;;;;;;;4.95;2.25;;;4.40;99.90;;;;;;5063199;28;20438;-59
2023/01/25 07:45:31;;;;;;;6.35;3.05;;;4.40;99.90;;;;;;5072910;28;20472;-58
2023/01/25 07:47:59;;;;;;;3.85;2.10;;;4.30;99.90;;;;;;5072125;28;20869;-58
2023/01/25 07:50:27;;;;;;;5.22;2.95;;;4.30;99.90;;;;;;5071902;28;20800;-59
2023/01/25 07:52:54;;;;;;;6.10;3.38;;;4.20;99.90;;;;;;5071318;28;20529;-58
2023/01/25 07:55:23;;;;;;;4.70;2.85;;;4.10;99.90;;;;;;5069402;28;20537;-58
2023/01/25 07:57:54;;;;;;;5.22;2.90;;;4.20;99.90;;;;;;5067422;28;20981;-57
2023/01/25 08:00:22;;;;;;;5.15;2.20;;;4.30;99.90;;;;;;5071329;28;20973;-58
2023/01/25 08:02:50;;;;;;;5.20;2.10;;;4.30;99.90;;;;;;5076324;28;20519;-59
2023/01/25 08:05:18;;;;;;;4.50;2.72;;;4.50;99.90;;;;;;5065181;28;20950;-51
2023/01/25 08:07:45;;;;;;;6.15;2.70;;;4.50;99.90;;;;;;5063251;28;20520;-54
2023/01/25 08:10:12;;;;;;;5.82;3.25;;;4.80;99.90;;;;;;5055295;28;20429;-55
2023/01/25 08:12:45;;;;;;;3.95;2.03;;;4.90;99.90;;;;;;5063857;28;21138;-55
2023/01/25 08:15:13;;;;;;;3.95;2.10;;;4.80;99.90;;;;;;5070050;28;20724;-53
2023/01/25 08:17:40;;;;;;;5.55;3.40;;;4.90;99.90;;;;;;5056626;28;20740;-66
2023/01/25 08:20:10;;;;;;;4.45;2.70;;;4.90;99.90;;;;;;5063074;28;20447;-59
2023/01/25 08:22:37;;;;;;;5.47;2.33;;;4.80;99.90;;;;;;5066476;28;20511;-58
2023/01/25 08:25:04;;;;;;;5.33;2.80;;;4.80;99.90;;;;;;5056599;28;20528;-59
2023/01/25 08:27:32;;;;;;;6.38;3.13;;;4.60;99.90;;;;;;5054059;28;20804;-59
2023/01/25 08:30:00;;;;;;;5.22;3.42;;;4.70;99.90;;;;;;5066836;28;20526;-59
2023/01/25 08:32:27;;;;;;;5.80;3.60;;;4.80;99.90;;;;;;5061804;28;20516;-59
2023/01/25 08:34:55;;;;;;;6.90;3.40;;;4.90;99.90;;;;;;5075593;28;20534;-60
2023/01/25 08:37:22;;;;;;;3.65;2.22;;;5.00;99.90;;;;;;5074505;28;20514;-60
2023/01/25 08:39:49;;;;;;;5.82;2.50;;;4.90;99.90;;;;;;5073968;28;20455;-58
2023/01/25 08:42:16;;;;;;;6.83;2.50;;;4.90;99.90;;;;;;5074555;28;20495;-62
2023/01/25 08:44:43;;;;;;;4.75;2.40;;;4.90;99.90;;;;;;5072419;28;20597;-60
2023/01/25 08:47:12;;;;;;;3.85;1.88;;;4.80;99.90;;;;;;5075921;28;20518;-59
2023/01/25 08:49:39;;;;;;;4.88;2.45;;;5.10;99.90;;;;;;5075865;28;20450;-60
2023/01/25 08:52:06;;;;;;;5.20;2.80;;;5.30;99.90;;;;;;5074094;28;20436;-59
2023/01/25 08:54:34;;;;;;;5.30;3.10;;;5.10;99.90;;;;;;5075407;28;20451;-60
2023/01/25 08:57:01;;;;;;;6.40;2.90;;;4.80;99.90;;;;;;5072100;28;21037;-60
2023/01/25 08:59:29;;;;;;;5.70;2.95;;;4.70;99.90;;;;;;5072569;28;20930;-60
2023/01/25 09:01:56;;;;;;;5.15;2.20;;;4.80;99.90;;;;;;5072500;28;20534;-60
2023/01/25 09:04:27;;;;;;;4.60;2.10;;;5.10;99.90;;;;;;5060350;28;20511;-59
2023/01/25 09:06:54;;;;;;;4.10;1.80;;;5.30;99.90;;;;;;5072724;28;20523;-60
2023/01/25 09:09:23;;;;;;;3.22;2.20;;;5.30;99.90;;;;;;5071591;28;20419;-59
2023/01/25 09:11:51;;;;;;;5.20;2.33;;;5.20;99.90;;;;;;5070673;28;20439;-60
2023/01/25 09:14:18;;;;;;;4.32;2.30;;;4.90;99.90;;;;;;5072831;28;20522;-60
2023/01/25 09:16:45;;;;;;;4.63;2.10;;;4.90;99.90;;;;;;5072868;28;20434;-60
2023/01/25 09:19:12;;;;;;;5.72;2.33;;;4.90;99.90;;;;;;5073673;28;20440;-60
2023/01/25 09:21:41;;;;;;;4.78;2.45;;;4.80;99.90;;;;;;5074488;28;20427;-61
2023/01/25 09:24:08;;;;;;;3.77;2.00;;;4.70;99.90;;;;;;5072718;28;20409;-60
2023/01/25 09:26:39;;;;;;;4.60;2.58;;;4.90;99.90;;;;;;5072705;28;20510;-60
2023/01/25 09:29:07;;;;;;;5.72;2.55;;;4.80;99.90;;;;;;5074294;28;20428;-59
2023/01/25 09:31:35;;;;;;;3.63;2.40;;;4.80;99.90;;;;;;5068959;28;20802;-60
2023/01/25 09:34:02;;;;;;;5.73;2.87;;;4.90;99.90;;;;;;5051196;28;20486;-60
2023/01/25 09:36:29;;;;;;;5.65;2.35;;;5.00;99.90;;;;;;5070070;28;20517;-60
2023/01/25 09:38:58;;;;;;;4.45;2.35;;;5.20;99.90;;;;;;5071870;28;20424;-60
2023/01/25 09:41:43;;;;;;;4.37;2.10;;;5.30;99.90;;;;;;5071777;28;20431;-60
2023/01/25 09:44:28;;;;;;;3.35;2.03;;;5.30;99.90;;;;;;5071699;28;20912;-58
2023/01/25 09:46:58;;;;;;;5.27;2.47;;;5.30;99.90;;;;;;5070993;28;20444;-58
2023/01/25 09:49:45;;;;;;;6.53;2.70;;;5.10;99.90;;;;;;5058522;28;20425;-64
2023/01/25 09:52:31;;;;;;;5.80;2.40;;;5.00;99.90;;;;;;5052671;28;20853;-59
2023/01/25 09:55:00;;;;;;;5.50;2.50;;;5.00;99.90;;;;;;5066022;28;20412;-60
2023/01/25 09:57:34;;;;;;;3.92;2.08;;;5.30;99.90;;;;;;5067873;28;20437;-59
2023/01/25 10:00:09;;;;;;;4.90;2.65;;;5.40;99.90;;;;;;5060455;28;20505;-59
2023/01/25 10:02:44;;;;;;;4.68;3.03;;;5.40;99.90;;;;;;5039280;28;20434;-60
2023/01/25 10:05:15;;;;;;;4.45;2.20;;;5.00;99.90;;;;;;5068933;28;20554;-59
2023/01/25 10:07:55;;;;;;;4.05;2.33;;;4.70;99.90;;;;;;5069199;28;20521;-59
2023/01/25 10:10:29;;;;;;;6.43;3.45;;;4.70;99.90;;;;;;5070407;28;20494;-59
2023/01/25 10:12:56;;;;;;;4.63;3.00;;;4.60;99.90;;;;;;5071534;28;20495;-59
2023/01/25 10:15:31;;;;;;;4.97;2.30;;;4.70;99.90;;;;;;5071508;28;20461;-59
2023/01/25 10:18:03;;;;;;;5.00;2.85;;;4.60;99.90;;;;;;5071689;28;20435;-59
2023/01/25 10:20:38;;;;;;;5.30;2.70;;;4.60;99.90;;;;;;5072411;28;20467;-59
2023/01/25 10:23:40;;;;;;;5.05;2.40;;;4.50;99.90;;;;;;5071118;28;20416;-59
2023/01/25 10:26:15;;;;;;;4.85;2.25;;;4.30;99.90;;;;;;5066569;28;20980;-59
2023/01/25 10:28:48;;;;;;;5.50;2.42;;;4.30;99.90;;;;;;5051263;28;20448;-59
2023/01/25 10:31:19;;;;;;;6.40;2.78;;;4.30;99.90;;;;;;5060408;28;20439;-60
2023/01/25 10:33:48;;;;;;;5.32;2.85;;;4.20;99.90;;;;;;5066540;28;20424;-59
2023/01/25 10:36:18;;;;;;;5.93;3.13;;;4.10;99.90;;;;;;5066879;28;20534;-58
2023/01/25 10:38:47;;;;;;;6.25;2.88;;;4.00;99.90;;;;;;5059988;28;20510;-59
2023/01/25 10:41:25;;;;;;;5.03;2.70;;;4.00;99.90;;;;;;5053440;28;20437;-59
2023/01/25 10:44:20;;;;;;;7.78;3.85;;;4.20;99.90;;;;;;5050144;28;20749;-60
2023/01/25 10:46:50;;;;;;;7.35;4.47;;;4.10;99.90;;;;;;5052176;28;20429;-59
2023/01/25 10:49:24;;;;;;;5.40;3.13;;;4.20;99.90;;;;;;5050476;28;20512;-59
2023/01/25 10:51:51;;;;;;;6.45;3.30;;;4.00;99.90;;;;;;5071733;28;20526;-60
2023/01/25 10:54:18;;;;;;;6.43;3.75;;;3.90;99.90;;;;;;5069740;28;20871;-60
2023/01/25 10:56:48;;;;;;;7.35;4.13;;;3.90;99.90;;;;;;5071371;28;20424;-58
2023/01/25 10:59:22;;;;;;;6.47;3.60;;;3.90;99.90;;;;;;5062570;28;20780;-59
2023/01/25 11:01:50;;;;;;;6.82;3.50;;;4.00;99.90;;;;;;5061768;28;20871;-60
2023/01/25 11:04:30;;;;;;;6.80;3.50;;;3.90;99.90;;;;;;5070475;28;20448;-60
2023/01/25 11:06:58;;;;;;;7.40;3.97;;;3.90;99.90;;;;;;5069657;28;20435;-59
2023/01/25 11:09:39;;;;;;;6.43;3.70;;;3.90;99.90;;;;;;5070861;28;20697;-59
2023/01/25 11:12:17;;;;;;;7.20;3.58;;;4.10;99.90;;;;;;5070274;28;20423;-59
2023/01/25 11:14:45;;;;;;;6.22;3.10;;;4.20;99.90;;;;;;5071799;28;20427;-59
2023/01/25 11:17:25;;;;;;;7.75;4.00;;;4.20;99.90;;;;;;5061847;28;20544;-59
2023/01/25 11:20:07;;;;;;;6.50;3.13;;;4.30;99.90;;;;;;5049901;28;20429;-58
2023/01/25 11:22:35;;;;;;;7.32;4.35;;;4.30;99.90;;;;;;5049028;28;20796;-59
2023/01/25 11:25:26;;;;;;;6.55;3.92;;;4.30;99.90;;;;;;5049945;28;20433;-58
2023/01/25 11:28:11;;;;;;;8.18;3.80;;;4.10;99.90;;;;;;5048236;28;21037;-58
2023/01/25 11:30:38;;;;;;;7.72;4.35;;;4.20;99.90;;;;;;5061567;28;20871;-58
2023/01/25 11:33:11;;;;;;;6.65;3.70;;;4.30;99.90;;;;;;5055896;28;20441;-58
2023/01/25 11:35:52;;;;;;;7.10;3.25;;;4.20;99.90;;;;;;5048699;28;20429;-59
2023/01/25 11:38:23;;;;;;;7.07;3.78;;;4.10;99.90;;;;;;5050208;28;20429;-59
2023/01/25 11:40:55;;;;;;;6.82;3.40;;;3.90;99.90;;;;;;5070782;28;20489;-59
2023/01/25 11:43:40;;;;;;;6.75;3.85;;;3.90;99.90;;;;;;5071718;28;20918;-60
2023/01/25 11:46:28;;;;;;;7.30;4.68;;;3.90;99.90;;;;;;5070799;28;20427;-59
2023/01/25 11:49:09;;;;;;;8.40;4.10;;;4.00;99.90;;;;;;5058119;28;20471;-59
2023/01/25 11:51:43;;;;;;;5.88;4.07;;;4.10;99.90;;;;;;5056708;28;20528;-59
2023/01/25 11:54:32;;;;;;;8.60;4.60;;;4.20;99.90;;;;;;5051619;28;20502;-58
2023/01/25 11:57:03;;;;;;;7.63;4.95;;;4.30;99.90;;;;;;5056899;28;20987;-59
2023/01/25 11:59:57;;;;;;;7.85;5.10;;;4.30;99.90;;;;;;5072585;28;20784;-58
2023/01/25 12:02:50;;;;;;;8.85;5.35;;;4.20;99.90;;;;;;5073105;28;20493;-58
2023/01/25 12:05:33;;;;;;;6.03;4.20;;;4.10;99.90;;;;;;5074637;28;20459;-58
2023/01/25 12:08:15;;;;;;;9.65;5.93;;;4.10;99.90;;;;;;5054262;28;20428;-59
2023/01/25 12:10:52;;;;;;;8.30;5.53;;;4.10;99.90;;;;;;5066245;28;20746;-58
2023/01/25 12:13:24;;;;;;;9.40;6.25;;;4.20;99.90;;;;;;5067853;28;20436;-59
2023/01/25 12:16:07;;;;;;;15.27;10.30;;;4.20;99.90;;;;;;5065017;28;20443;-59
2023/01/25 12:19:13;;;;;;;6.70;4.20;;;4.20;99.90;;;;;;5070320;28;20529;-59
2023/01/25 12:22:01;;;;;;;7.20;4.28;;;4.30;99.90;;;;;;5055357;28;20531;-58
2023/01/25 12:24:42;;;;;;;6.40;4.20;;;4.20;99.90;;;;;;5059639;28;20746;-58
2023/01/25 12:27:21;;;;;;;8.30;5.40;;;3.90;99.90;;;;;;5063965;28;20946;-58
2023/01/25 12:29:55;;;;;;;8.40;5.35;;;3.80;99.90;;;;;;5063233;28;20429;-60
2023/01/25 12:32:28;;;;;;;7.85;4.40;;;3.80;99.90;;;;;;5060489;28;20814;-59
2023/01/25 12:35:05;;;;;;;9.75;5.55;;;3.80;99.90;;;;;;5066798;28;20950;-60
2023/01/25 12:37:37;;;;;;;8.90;5.50;;;3.80;99.90;;;;;;5073999;28;20843;-60
2023/01/25 12:40:12;;;;;;;9.20;5.05;;;3.90;99.90;;;;;;5073028;28;20502;-58
2023/01/25 12:42:44;;;;;;;10.95;6.25;;;3.90;99.90;;;;;;5074832;28;20518;-58
2023/01/25 12:45:17;;;;;;;9.13;6.18;;;3.90;99.90;;;;;;5074381;28;20488;-58
2023/01/25 12:47:49;;;;;;;7.90;5.40;;;3.90;99.90;;;;;;5052682;28;20479;-59
2023/01/25 12:50:20;;;;;;;9.77;5.90;;;3.80;99.90;;;;;;5062226;28;20562;-58
2023/01/25 12:52:51;;;;;;;12.00;6.67;;;3.80;99.90;;;;;;5061795;28;20468;-59
2023/01/25 12:55:19;;;;;;;10.68;6.55;;;3.70;99.90;;;;;;5084912;28;20437;-59
2023/01/25 12:57:55;;;;;;;10.35;5.72;;;3.60;99.90;;;;;;5060964;28;20758;-59
2023/01/25 13:00:27;;;;;;;7.95;5.50;;;3.70;99.90;;;;;;5069753;28;20428;-58
2023/01/25 13:03:07;;;;;;;9.65;6.00;;;3.80;99.90;;;;;;5069946;28;20423;-59
2023/01/25 13:05:40;;;;;;;11.52;7.00;;;3.90;99.90;;;;;;5074133;28;20435;-59
2023/01/25 13:08:22;;;;;;;10.45;6.82;;;3.70;99.90;;;;;;5072368;28;20506;-59
2023/01/25 13:10:52;;;;;;;8.52;5.50;;;3.60;99.90;;;;;;5070927;28;20525;-59